createdAt,value
2023-12-23T00:00:21.989Z,1.70
2023-12-23T00:02:51.667Z,1.38
2023-12-23T00:05:20.440Z,3.20
2023-12-23T00:07:49.226Z,2.50
2023-12-23T00:10:17.903Z,1.80
2023-12-23T00:12:46.302Z,2.03
2023-12-23T00:15:14.592Z,2.08
2023-12-23T00:17:44.529Z,2.10
2023-12-23T00:20:16.319Z,2.53
2023-12-23T00:22:44.709Z,2.20
2023-12-23T00:25:13.031Z,4.38
2023-12-23T00:27:41.327Z,3.65
2023-12-23T00:30:13.190Z,2.15
2023-12-23T00:32:42.235Z,2.22
2023-12-23T00:35:10.537Z,1.95
2023-12-23T00:37:40.310Z,1.27
2023-12-23T00:40:09.808Z,2.55
2023-12-23T00:42:38.590Z,2.10
2023-12-23T00:45:08.383Z,2.15
2023-12-23T00:47:38.550Z,1.52
2023-12-23T00:50:08.668Z,3.42
2023-12-23T00:52:37.170Z,2.75
2023-12-23T00:55:07.344Z,2.80
2023-12-23T00:57:35.571Z,2.78
2023-12-23T01:00:04.542Z,2.58
2023-12-23T01:02:32.937Z,2.22
2023-12-23T01:05:01.237Z,2.08
2023-12-23T01:07:29.597Z,1.73
2023-12-23T01:09:58.648Z,2.50
2023-12-23T01:12:29.086Z,1.38
2023-12-23T01:14:57.314Z,1.65
2023-12-23T01:17:25.626Z,1.70
2023-12-23T01:19:54.420Z,1.98
2023-12-23T01:22:22.927Z,3.40
2023-12-23T01:24:51.289Z,2.20
2023-12-23T01:27:19.813Z,1.65
2023-12-23T01:29:51.525Z,2.90
2023-12-23T01:32:19.999Z,2.50
2023-12-23T01:34:48.409Z,1.98
2023-12-23T01:37:16.854Z,1.70
2023-12-23T01:39:45.198Z,1.58
2023-12-23T01:42:14.673Z,2.05
2023-12-23T01:44:43.060Z,1.80
2023-12-23T01:47:13.501Z,1.65
2023-12-23T01:49:43.324Z,1.58
2023-12-23T01:52:12.414Z,1.45
2023-12-23T01:54:41.004Z,1.65
2023-12-23T01:57:09.330Z,0.82
2023-12-23T01:59:37.916Z,1.10
2023-12-23T02:02:07.678Z,1.02
2023-12-23T02:04:37.563Z,1.45
2023-12-23T02:07:06.137Z,1.90
2023-12-23T02:09:35.238Z,1.02
2023-12-23T02:12:13.935Z,1.27
2023-12-23T02:14:47.559Z,1.23
2023-12-23T02:17:16.471Z,1.50
2023-12-23T02:19:47.447Z,0.60
2023-12-23T02:22:17.147Z,1.45
2023-12-23T02:24:45.637Z,1.30
2023-12-23T02:27:17.129Z,1.30
2023-12-23T02:29:47.561Z,1.33
2023-12-23T02:32:17.033Z,2.55
2023-12-23T02:34:45.781Z,1.75
2023-12-23T02:37:14.112Z,1.73
2023-12-23T02:39:43.751Z,1.77
2023-12-23T02:42:12.253Z,1.92
2023-12-23T02:44:41.408Z,1.67
2023-12-23T02:47:09.882Z,2.08
2023-12-23T02:49:38.318Z,1.38
2023-12-23T02:52:07.103Z,1.05
2023-12-23T02:54:35.424Z,2.95
2023-12-23T02:57:05.272Z,1.30
2023-12-23T02:59:33.697Z,1.88
2023-12-23T03:02:02.051Z,2.80
2023-12-23T03:04:30.591Z,1.63
2023-12-23T03:06:58.993Z,1.25
2023-12-23T03:09:27.294Z,1.40
2023-12-23T03:11:55.877Z,1.58
2023-12-23T03:14:25.602Z,2.72
2023-12-23T03:16:54.005Z,2.03
2023-12-23T03:19:22.568Z,1.33
2023-12-23T03:21:51.122Z,2.22
2023-12-23T03:24:19.493Z,2.35
2023-12-23T03:26:47.956Z,2.15
2023-12-23T03:29:16.770Z,2.33
2023-12-23T03:31:46.667Z,2.10
2023-12-23T03:34:15.093Z,2.78
2023-12-23T03:36:43.404Z,3.47
2023-12-23T03:39:11.891Z,3.05
2023-12-23T03:41:40.196Z,2.88
2023-12-23T03:44:08.694Z,2.83
2023-12-23T03:46:37.170Z,3.40
2023-12-23T03:49:06.940Z,3.22
2023-12-23T03:51:35.357Z,2.53
2023-12-23T03:54:03.971Z,3.03
2023-12-23T03:56:32.528Z,4.53
2023-12-23T03:59:01.020Z,3.92
2023-12-23T04:01:29.370Z,3.35
2023-12-23T04:03:57.855Z,4.65
2023-12-23T04:06:28.271Z,4.38
2023-12-23T04:08:56.707Z,3.88
2023-12-23T04:11:25.092Z,4.38
2023-12-23T04:13:53.555Z,6.20
2023-12-23T04:16:22.776Z,7.45
2023-12-23T04:18:51.622Z,3.90
2023-12-23T04:21:19.879Z,6.60
2023-12-23T04:23:49.622Z,5.53
2023-12-23T04:26:18.122Z,5.13
2023-12-23T04:28:46.617Z,4.03
2023-12-23T04:31:15.279Z,4.00
2023-12-23T04:33:43.898Z,5.97
2023-12-23T04:36:12.508Z,7.35
2023-12-23T04:38:40.965Z,8.45
2023-12-23T04:41:10.663Z,7.05
2023-12-23T04:43:41.880Z,4.88
2023-12-23T04:46:10.352Z,4.35
2023-12-23T04:48:38.696Z,6.18
2023-12-23T04:51:07.145Z,5.57
2023-12-23T04:53:36.219Z,6.35
2023-12-23T04:56:04.873Z,6.93
2023-12-23T04:58:34.743Z,9.50
2023-12-23T05:01:03.641Z,6.22
2023-12-23T05:03:34.275Z,7.18
2023-12-23T05:06:03.044Z,5.85
2023-12-23T05:08:31.618Z,8.88
2023-12-23T05:11:00.233Z,6.80
2023-12-23T05:13:28.690Z,5.25
2023-12-23T05:15:58.419Z,6.70
2023-12-23T05:18:26.898Z,6.32
2023-12-23T05:20:55.409Z,7.43
2023-12-23T05:23:24.052Z,6.63
2023-12-23T05:25:54.415Z,6.70
2023-12-23T05:28:23.395Z,5.25
2023-12-23T05:30:51.771Z,4.80
2023-12-23T05:33:25.355Z,5.03
2023-12-23T05:35:53.882Z,6.90
2023-12-23T05:38:22.337Z,4.60
2023-12-23T05:40:50.826Z,6.50
2023-12-23T05:43:19.166Z,6.05
2023-12-23T05:45:47.978Z,6.45
2023-12-23T05:48:16.506Z,9.20
2023-12-23T05:50:46.400Z,6.70
2023-12-23T05:53:14.687Z,6.63
2023-12-23T05:55:43.177Z,5.65
2023-12-23T05:58:11.634Z,6.63
2023-12-23T06:00:39.921Z,6.93
2023-12-23T06:03:08.770Z,5.75
2023-12-23T06:05:37.217Z,5.65
2023-12-23T06:08:08.364Z,7.47
2023-12-23T06:10:47.361Z,6.68
2023-12-23T06:13:23.134Z,6.40
2023-12-23T06:15:51.428Z,5.95
2023-12-23T06:18:19.723Z,5.20
2023-12-23T06:20:48.118Z,5.97
2023-12-23T06:23:17.864Z,5.70
2023-12-23T06:25:46.103Z,4.78
2023-12-23T06:28:14.369Z,4.90
2023-12-23T06:30:43.205Z,4.47
2023-12-23T06:33:11.789Z,4.55
2023-12-23T06:35:40.091Z,5.75
2023-12-23T06:38:08.343Z,4.60
2023-12-23T06:40:38.018Z,5.65
2023-12-23T06:43:43.345Z,5.38
2023-12-23T06:45:54.972Z,6.25
2023-12-23T06:48:23.708Z,6.03
2023-12-23T06:50:52.134Z,5.20
2023-12-23T06:53:20.609Z,5.78
2023-12-23T06:55:50.328Z,4.82
2023-12-23T06:58:18.616Z,6.35
2023-12-23T07:00:46.953Z,4.88
2023-12-23T07:03:15.418Z,4.82
2023-12-23T07:05:43.911Z,5.55
2023-12-23T07:08:12.521Z,6.18
2023-12-23T07:10:40.930Z,7.88
2023-12-23T07:13:10.637Z,4.82
2023-12-23T07:15:38.902Z,7.25
2023-12-23T07:18:08.074Z,4.78
2023-12-23T07:20:36.452Z,4.53
2023-12-23T07:23:04.940Z,5.03
2023-12-23T07:25:33.232Z,5.53
2023-12-23T07:28:01.645Z,5.80
2023-12-23T07:30:31.309Z,4.50
2023-12-23T07:32:59.702Z,4.15
2023-12-23T07:35:28.583Z,6.22
2023-12-23T07:37:57.012Z,4.85
2023-12-23T07:40:27.137Z,5.30
2023-12-23T07:42:56.839Z,5.60
2023-12-23T07:45:25.272Z,4.20
2023-12-23T07:47:54.918Z,4.57
2023-12-23T07:50:23.883Z,7.25
2023-12-23T07:52:52.599Z,7.38
2023-12-23T07:55:21.061Z,6.60
2023-12-23T07:57:49.370Z,5.80
2023-12-23T08:00:18.934Z,5.70
2023-12-23T08:02:47.223Z,6.45
2023-12-23T08:05:17.509Z,5.50
2023-12-23T08:07:45.937Z,7.40
2023-12-23T08:10:14.348Z,6.15
2023-12-23T08:12:42.599Z,6.47
2023-12-23T08:15:11.518Z,5.47
2023-12-23T08:17:39.866Z,4.93
2023-12-23T08:20:09.209Z,6.82
2023-12-23T08:22:38.878Z,5.80
2023-12-23T08:25:07.438Z,5.68
2023-12-23T08:27:35.686Z,5.95
2023-12-23T08:30:03.995Z,5.07
2023-12-23T08:32:32.398Z,5.00
2023-12-23T08:35:00.872Z,5.53
2023-12-23T08:37:29.167Z,5.65
2023-12-23T08:39:58.799Z,4.40
2023-12-23T08:42:27.078Z,6.13
2023-12-23T08:44:56.110Z,7.18
2023-12-23T08:47:24.474Z,6.97
2023-12-23T08:49:52.719Z,5.55
2023-12-23T08:52:21.603Z,5.25
2023-12-23T08:54:49.855Z,4.13
2023-12-23T08:57:19.440Z,6.47
2023-12-23T08:59:47.679Z,6.40
2023-12-23T09:02:15.966Z,5.55
2023-12-23T09:04:44.266Z,4.43
2023-12-23T09:07:13.411Z,5.15
2023-12-23T09:09:41.826Z,7.25
2023-12-23T09:12:10.652Z,4.03
2023-12-23T09:14:40.506Z,5.15
2023-12-23T09:17:08.710Z,5.18
2023-12-23T09:19:36.981Z,7.75
2023-12-23T09:22:05.348Z,4.35
2023-12-23T09:24:33.571Z,5.00
2023-12-23T09:27:02.097Z,3.70
2023-12-23T09:29:30.595Z,4.25
2023-12-23T09:32:00.349Z,3.22
2023-12-23T09:34:28.710Z,4.82
2023-12-23T09:36:56.950Z,3.72
2023-12-23T09:39:25.272Z,4.22
2023-12-23T09:41:53.542Z,5.88
2023-12-23T09:44:22.179Z,4.25
2023-12-23T09:46:50.612Z,5.30
2023-12-23T09:49:20.408Z,6.82
2023-12-23T09:51:49.736Z,3.72
2023-12-23T09:54:22.121Z,3.38
2023-12-23T09:56:51.997Z,4.95
2023-12-23T09:59:21.316Z,5.05
2023-12-23T10:01:49.618Z,4.38
2023-12-23T10:04:17.916Z,5.97
2023-12-23T10:06:47.505Z,4.70
2023-12-23T10:09:16.398Z,4.95
2023-12-23T10:11:44.625Z,3.70
2023-12-23T10:14:13.947Z,5.80
2023-12-23T10:16:44.618Z,5.32
2023-12-23T10:19:14.567Z,5.03
2023-12-23T10:21:43.269Z,3.63
2023-12-23T10:24:12.835Z,7.28
2023-12-23T10:26:43.535Z,5.45
2023-12-23T10:29:12.447Z,3.70
2023-12-23T10:31:42.750Z,3.58
2023-12-23T10:34:14.088Z,3.30
2023-12-23T10:36:44.235Z,3.75
2023-12-23T10:39:21.431Z,5.07
2023-12-23T10:41:57.694Z,3.28
2023-12-23T10:44:28.272Z,3.25
2023-12-23T10:46:57.755Z,4.22
2023-12-23T10:49:26.514Z,3.28
2023-12-23T10:51:56.562Z,5.35
2023-12-23T10:54:28.688Z,4.15
2023-12-23T10:56:58.858Z,4.88
2023-12-23T10:59:27.192Z,4.95
2023-12-23T11:01:58.228Z,5.05
2023-12-23T11:04:28.448Z,4.00
2023-12-23T11:07:00.892Z,4.43
2023-12-23T11:09:32.665Z,6.13
2023-12-23T11:12:01.426Z,3.92
2023-12-23T11:14:31.196Z,5.72
2023-12-23T11:17:00.263Z,5.40
2023-12-23T11:19:28.660Z,5.72
2023-12-23T11:22:22.229Z,7.85
2023-12-23T11:24:52.093Z,5.38
2023-12-23T11:27:33.848Z,6.10
2023-12-23T11:30:04.874Z,4.57
2023-12-23T11:32:36.253Z,5.28
2023-12-23T11:35:06.899Z,5.63
2023-12-23T11:37:53.711Z,6.75
2023-12-23T11:40:23.940Z,5.43
2023-12-23T11:42:52.518Z,6.35
2023-12-23T11:45:21.381Z,4.10
2023-12-23T11:47:51.731Z,5.45
2023-12-23T11:50:19.981Z,6.15
2023-12-23T11:52:49.026Z,4.47
2023-12-23T11:55:18.746Z,7.18
2023-12-23T11:57:48.464Z,4.72
2023-12-23T12:00:17.548Z,3.47
2023-12-23T12:02:45.965Z,4.68
2023-12-23T12:05:14.464Z,3.85
2023-12-23T12:07:43.256Z,4.57
2023-12-23T12:10:15.236Z,2.85
2023-12-23T12:12:43.513Z,3.22
2023-12-23T12:15:13.339Z,2.97
2023-12-23T12:17:41.968Z,2.88
2023-12-23T12:20:11.416Z,3.95
2023-12-23T12:22:47.773Z,4.13
2023-12-23T12:25:17.340Z,6.43
2023-12-23T12:27:46.721Z,2.97
2023-12-23T12:30:16.360Z,3.20
2023-12-23T12:32:46.787Z,3.40
2023-12-23T12:35:16.215Z,2.97
2023-12-23T12:37:44.817Z,3.13
2023-12-23T12:40:14.197Z,4.47
2023-12-23T12:42:47.674Z,2.75
2023-12-23T12:45:17.284Z,3.92
2023-12-23T12:47:45.892Z,3.10
2023-12-23T12:50:14.273Z,3.20
2023-12-23T12:55:12.829Z,4.72
2023-12-23T12:57:41.528Z,3.00
2023-12-23T13:00:10.975Z,2.38
2023-12-23T13:02:40.655Z,2.40
2023-12-23T13:05:09.070Z,3.22
2023-12-23T13:07:37.322Z,3.00
2023-12-23T13:10:06.545Z,2.30
2023-12-23T13:12:34.827Z,2.47
2023-12-23T13:15:03.499Z,4.10
2023-12-23T13:17:31.836Z,3.53
2023-12-23T13:20:01.688Z,3.50
2023-12-23T13:22:30.698Z,2.80
2023-12-23T13:24:58.983Z,2.83
2023-12-23T13:27:29.975Z,4.55
2023-12-23T13:30:00.588Z,4.30
2023-12-23T13:32:29.860Z,3.25
2023-12-23T13:35:03.151Z,2.42
2023-12-23T13:37:33.918Z,2.47
2023-12-23T13:40:03.064Z,2.17
2023-12-23T13:42:32.232Z,2.88
2023-12-23T13:45:01.595Z,3.83
2023-12-23T13:47:31.286Z,3.83
2023-12-23T13:50:01.507Z,2.33
2023-12-23T13:52:31.000Z,4.28
2023-12-23T13:55:05.350Z,2.15
2023-12-23T13:57:34.750Z,2.30
2023-12-23T14:00:04.350Z,4.38
2023-12-23T14:02:36.368Z,2.67
2023-12-23T14:05:06.476Z,4.60
2023-12-23T14:07:35.712Z,3.13
2023-12-23T14:10:06.311Z,4.85
2023-12-23T14:12:34.896Z,2.42
2023-12-23T14:15:05.075Z,1.83
2023-12-23T14:17:34.840Z,2.08
2023-12-23T14:20:05.674Z,1.95
2023-12-23T14:22:34.209Z,3.28
2023-12-23T14:25:02.972Z,3.65
2023-12-23T14:27:32.952Z,3.38
2023-12-23T14:30:01.792Z,2.50
2023-12-23T14:32:31.231Z,2.92
2023-12-23T14:35:02.005Z,1.60
2023-12-23T14:37:35.548Z,2.00
2023-12-23T14:40:11.994Z,3.13
2023-12-23T14:42:42.532Z,3.22
2023-12-23T14:45:12.532Z,3.80
2023-12-23T14:47:41.376Z,4.07
2023-12-23T14:50:11.086Z,4.13
2023-12-23T14:52:40.242Z,2.92
2023-12-23T14:55:09.546Z,4.10
2023-12-23T14:57:39.660Z,4.15
2023-12-23T15:00:14.725Z,3.40
2023-12-23T15:02:43.532Z,3.45
2023-12-23T15:05:13.153Z,2.50
2023-12-23T15:07:43.009Z,3.88
2023-12-23T15:10:11.727Z,2.22
2023-12-23T15:12:40.039Z,2.67
2023-12-23T15:15:09.651Z,2.70
2023-12-23T15:17:39.536Z,2.35
2023-12-23T15:20:09.397Z,4.00
2023-12-23T15:22:37.692Z,2.53
2023-12-23T15:25:06.894Z,2.95
2023-12-23T15:27:35.114Z,2.55
2023-12-23T15:30:05.111Z,3.15
2023-12-23T15:32:33.734Z,3.20
2023-12-23T15:35:03.762Z,2.88
2023-12-23T15:37:32.137Z,3.55
2023-12-23T15:40:00.458Z,2.08
2023-12-23T15:42:54.405Z,2.63
2023-12-23T15:45:23.272Z,2.63
2023-12-23T15:47:51.878Z,3.50
2023-12-23T15:50:21.843Z,2.35
2023-12-23T15:52:50.328Z,3.67
2023-12-23T15:55:18.895Z,2.72
2023-12-23T15:57:47.139Z,2.90
2023-12-23T16:00:17.384Z,3.13
2023-12-23T16:02:46.173Z,5.07
2023-12-23T16:05:14.591Z,3.92
2023-12-23T16:07:45.074Z,3.10
2023-12-23T16:10:13.340Z,4.50
2023-12-23T16:12:41.777Z,2.72
2023-12-23T16:15:11.183Z,3.28
2023-12-23T16:17:39.598Z,2.97
2023-12-23T16:20:09.345Z,3.20
2023-12-23T16:22:38.041Z,3.85
2023-12-23T16:25:11.216Z,2.97
2023-12-23T16:27:39.538Z,5.03
2023-12-23T16:30:09.599Z,3.50
2023-12-23T16:32:38.154Z,2.95
2023-12-23T16:35:07.643Z,6.00
2023-12-23T16:37:36.149Z,5.65
2023-12-23T16:40:04.944Z,3.20
2023-12-23T16:42:35.346Z,4.78
2023-12-23T16:45:03.983Z,3.70
2023-12-23T16:47:32.716Z,4.72
2023-12-23T16:50:03.648Z,3.30
2023-12-23T16:52:35.801Z,5.22
2023-12-23T16:55:04.228Z,6.07
2023-12-23T16:57:34.064Z,4.55
2023-12-23T17:00:03.376Z,4.55
2023-12-23T17:02:32.262Z,3.63
2023-12-23T17:05:00.937Z,3.45
2023-12-23T17:07:29.192Z,6.10
2023-12-23T17:09:57.402Z,4.07
2023-12-23T17:12:25.646Z,4.07
2023-12-23T17:14:56.187Z,3.85
2023-12-23T17:17:24.610Z,4.75
2023-12-23T17:19:53.089Z,4.47
2023-12-23T17:22:24.394Z,5.63
2023-12-23T17:24:54.466Z,5.05
2023-12-23T17:27:22.688Z,4.88
2023-12-23T17:29:50.937Z,4.40
2023-12-23T17:32:21.574Z,4.95
2023-12-23T17:34:50.701Z,5.28
2023-12-23T17:37:18.941Z,6.88
2023-12-23T17:39:47.318Z,4.40
2023-12-23T17:42:16.214Z,5.05
2023-12-23T17:44:44.476Z,4.30
2023-12-23T17:47:12.879Z,4.28
2023-12-23T17:49:42.460Z,4.20
2023-12-23T17:52:10.719Z,3.65
2023-12-23T17:54:39.306Z,4.95
2023-12-23T17:57:09.347Z,4.00
2023-12-23T17:59:37.610Z,3.97
2023-12-23T18:02:05.836Z,3.55
2023-12-23T18:04:34.130Z,4.13
2023-12-23T18:07:03.727Z,4.05
2023-12-23T18:09:32.269Z,5.63
2023-12-23T18:12:00.544Z,3.60
2023-12-23T18:14:29.517Z,3.75
2023-12-23T18:16:58.001Z,4.75
2023-12-23T18:19:26.336Z,4.28
2023-12-23T18:21:54.595Z,4.70
2023-12-23T18:24:24.229Z,3.53
2023-12-23T18:26:52.477Z,3.92
2023-12-23T18:29:20.727Z,6.40
2023-12-23T18:31:49.167Z,4.22
2023-12-23T18:34:17.604Z,4.25
2023-12-23T18:36:46.040Z,4.00
2023-12-23T18:39:14.408Z,4.72
2023-12-23T18:41:43.939Z,3.85
2023-12-23T18:44:12.111Z,4.15
2023-12-23T18:46:40.413Z,5.90
2023-12-23T18:49:08.676Z,3.90
2023-12-23T18:51:37.211Z,4.03
2023-12-23T18:54:05.567Z,5.10
2023-12-23T18:56:33.916Z,4.95
2023-12-23T18:59:05.490Z,4.88
2023-12-23T19:01:33.813Z,3.33
2023-12-23T19:04:02.425Z,4.30
2023-12-23T19:06:30.664Z,4.03
2023-12-23T19:08:58.849Z,3.58
2023-12-23T19:11:27.067Z,3.70
2023-12-23T19:13:55.315Z,4.28
2023-12-23T19:16:24.878Z,3.42
2023-12-23T19:18:53.149Z,4.45
2023-12-23T19:21:21.476Z,5.35
2023-12-23T19:23:49.773Z,3.65
2023-12-23T19:26:27.375Z,3.10
2023-12-23T19:28:55.839Z,3.20
2023-12-23T19:31:25.423Z,3.90
2023-12-23T19:33:53.775Z,4.65
2023-12-23T19:36:22.525Z,4.75
2023-12-23T19:38:50.752Z,3.60
2023-12-23T19:41:18.983Z,3.58
2023-12-23T19:43:49.647Z,3.42
2023-12-23T19:46:18.024Z,3.55
2023-12-23T19:48:47.633Z,3.10
2023-12-23T19:51:16.511Z,4.32
2023-12-23T19:53:44.783Z,2.58
2023-12-23T19:56:13.840Z,2.92
2023-12-23T19:58:43.060Z,3.90
2023-12-23T20:01:11.300Z,4.25
2023-12-23T20:03:41.085Z,4.82
2023-12-23T20:06:12.719Z,3.35
2023-12-23T20:08:41.933Z,4.53
2023-12-23T20:11:10.217Z,2.15
2023-12-23T20:13:40.049Z,3.00
2023-12-23T20:16:08.505Z,4.65
2023-12-23T20:18:37.458Z,2.85
2023-12-23T20:21:05.965Z,3.83
2023-12-23T20:23:35.578Z,3.60
2023-12-23T20:26:03.910Z,2.40
2023-12-23T20:28:32.132Z,2.78
2023-12-23T20:31:00.383Z,4.00
2023-12-23T20:33:28.737Z,4.18
2023-12-23T20:35:57.104Z,3.25
2023-12-23T20:38:26.261Z,5.57
2023-12-23T20:40:55.881Z,3.67
2023-12-23T20:43:24.118Z,3.55
2023-12-23T20:45:52.336Z,5.80
2023-12-23T20:48:20.804Z,3.25
2023-12-23T20:50:49.169Z,3.60
2023-12-23T20:53:17.810Z,5.15
2023-12-23T20:55:47.253Z,4.55
2023-12-23T20:58:16.874Z,2.90
2023-12-23T21:00:45.179Z,3.67
2023-12-23T21:03:13.541Z,4.00
2023-12-23T21:05:41.966Z,3.60
2023-12-23T21:08:10.429Z,4.32
2023-12-23T21:10:41.098Z,3.22
2023-12-23T21:13:09.326Z,3.28
2023-12-23T21:15:38.963Z,3.45
2023-12-23T21:18:07.334Z,3.17
2023-12-23T21:20:35.625Z,2.38
2023-12-23T21:23:03.923Z,3.92
2023-12-23T21:25:32.169Z,4.85
2023-12-23T21:28:00.381Z,2.28
2023-12-23T21:30:28.624Z,3.17
2023-12-23T21:32:58.582Z,3.78
2023-12-23T21:35:28.340Z,4.30
2023-12-23T21:37:56.885Z,3.92
2023-12-23T21:40:25.063Z,1.83
2023-12-23T21:42:53.474Z,2.53
2023-12-23T21:45:21.941Z,4.45
2023-12-23T21:47:50.794Z,3.92
2023-12-23T21:50:21.233Z,2.75
2023-12-23T21:52:49.909Z,2.38
2023-12-23T21:55:18.379Z,4.18
2023-12-23T21:57:46.682Z,3.05
2023-12-23T22:00:15.889Z,2.97
2023-12-23T22:02:44.227Z,3.85
2023-12-23T22:05:12.601Z,3.22
2023-12-23T22:07:42.332Z,4.72
2023-12-23T22:10:13.586Z,3.63
2023-12-23T22:12:41.991Z,3.40
2023-12-23T22:15:10.995Z,4.88
2023-12-23T22:17:39.386Z,3.10
2023-12-23T22:20:08.696Z,3.03
2023-12-23T22:22:36.986Z,3.17
2023-12-23T22:25:07.569Z,3.28
2023-12-23T22:27:36.178Z,3.88
2023-12-23T22:30:05.304Z,2.45
2023-12-23T22:32:34.103Z,1.88
2023-12-23T22:35:02.670Z,4.25
2023-12-23T22:37:30.947Z,2.80
2023-12-23T22:40:00.661Z,5.10
2023-12-23T22:42:30.423Z,3.83
2023-12-23T22:44:58.747Z,3.17
2023-12-23T22:47:30.733Z,3.13
2023-12-23T22:49:59.179Z,2.97
2023-12-23T22:52:27.476Z,4.28
2023-12-23T22:54:55.751Z,3.40
2023-12-23T22:57:24.044Z,5.10
2023-12-23T22:59:54.316Z,3.15
2023-12-23T23:02:23.148Z,4.15
2023-12-23T23:04:51.478Z,4.38
2023-12-23T23:07:19.904Z,3.63
2023-12-23T23:09:48.212Z,2.95
2023-12-23T23:12:16.613Z,3.25
2023-12-23T23:14:44.973Z,3.00
2023-12-23T23:17:14.632Z,3.50
2023-12-23T23:19:43.863Z,4.35
2023-12-23T23:22:12.290Z,4.07
2023-12-23T23:24:40.566Z,3.08
2023-12-23T23:27:08.829Z,4.05
2023-12-23T23:29:37.890Z,2.97
2023-12-23T23:32:07.237Z,3.80
2023-12-23T23:34:36.841Z,3.60
2023-12-23T23:37:05.750Z,2.92
2023-12-23T23:39:36.643Z,4.20
2023-12-23T23:42:05.906Z,3.28
2023-12-23T23:44:34.280Z,2.85
2023-12-23T23:47:02.622Z,5.43
2023-12-23T23:49:31.363Z,2.28
2023-12-23T23:52:01.081Z,3.67
2023-12-23T23:54:30.722Z,3.05
2023-12-23T23:56:58.998Z,3.50
2023-12-23T23:59:27.282Z,4.43
